Time;durP1;ratioP1;P1;durP2;ratioP2;P2;SDS_P1;SDS_P2;PMS_P1;PMS_P2;Temp;Humidity;BMP_temperature;BMP_pressure;BME280_temperature;BME280_humidity;BME280_pressure;Samples;Min_cycle;Max_cycle;Signal;HPM_P1;HPM_P2
2021/06/08 00:01:08;;;;;;;12.25;11.10;;;;;;;16.65;79.18;94487.26;828565;71;29395;-80
2021/06/08 00:16:08;;;;;;;12.13;10.93;;;;;;;16.57;79.20;94480.16;828384;71;29861;-80
2021/06/08 00:31:08;;;;;;;11.50;10.40;;;;;;;16.45;79.30;94463.67;828470;71;30477;-80
2021/06/08 00:46:14;;;;;;;11.30;10.20;;;;;;;16.35;79.41;94445.53;829077;71;32715;-78
2021/06/08 01:01:13;;;;;;;11.90;10.75;;;;;;;16.19;79.18;94436.84;829907;71;32044;-78
2021/06/08 01:16:14;;;;;;;12.78;11.05;;;;;;;16.05;79.54;94421.78;827987;71;32761;-78
2021/06/08 01:31:12;;;;;;;13.38;11.70;;;;;;;15.93;80.03;94423.81;826733;71;30778;-78
2021/06/08 01:46:09;;;;;;;13.45;12.25;;;;;;;15.99;80.66;94429.14;828990;71;30308;-79
2021/06/08 02:01:17;;;;;;;15.95;14.35;;;;;;;15.94;81.33;94422.73;827655;71;32788;-77
2021/06/08 02:16:39;;;;;;;21.90;17.23;;;;;;;15.88;83.33;94422.70;827604;71;33095;-77
2021/06/08 02:31:17;;;;;;;24.15;20.23;;;;;;;15.81;83.55;94425.08;834000;71;33402;-79
2021/06/08 02:46:15;;;;;;;24.27;20.72;;;;;;;15.71;84.65;94436.01;833914;71;32713;-79
2021/06/08 03:16:20;;;;;;;31.02;24.60;;;;;;;15.52;85.19;94447.02;835681;71;32729;-78
2021/06/08 03:31:16;;;;;;;28.20;22.90;;;;;;;15.66;84.78;94449.44;827647;71;31793;-79
2021/06/08 03:46:16;;;;;;;25.97;21.12;;;;;;;15.97;84.34;94459.13;827619;71;31738;-78
2021/06/08 04:01:20;;;;;;;23.12;19.42;;;;;;;17.13;81.34;94472.61;794135;74;31954;-79
2021/06/08 04:16:15;;;;;;;19.30;17.30;;;;;;;18.46;77.47;94483.78;827733;71;31812;-76
2021/06/08 04:31:13;;;;;;;24.32;19.62;;;;;;;17.67;75.51;94484.13;828009;71;31574;-77
2021/06/08 04:46:14;;;;;;;29.48;23.40;;;;;;;17.24;76.65;94488.09;828042;71;30891;-78
2021/06/08 05:01:17;;;;;;;28.15;22.77;;;;;;;17.20;77.49;94494.05;834016;71;28673;-77
2021/06/08 05:16:10;;;;;;;33.30;24.50;;;;;;;16.96;78.42;94504.60;829801;71;29256;-80
2021/06/08 05:31:20;;;;;;;28.15;23.50;;;;;;;17.34;78.47;94510.21;827346;71;32810;-76
2021/06/08 05:46:14;;;;;;;29.77;24.98;;;;;;;18.77;73.24;94504.36;822658;71;31765;-76
2021/06/08 06:01:11;;;;;;;26.65;21.17;;;;;;;19.28;70.12;94495.80;834034;71;29249;-77
2021/06/08 06:16:12;;;;;;;20.97;18.70;;;;;;;21.15;64.76;94501.90;834465;71;29840;-78
2021/06/08 06:31:11;;;;;;;19.75;17.75;;;;;;;21.39;62.70;94504.22;828336;71;29308;-76
2021/06/08 06:46:08;;;;;;;19.82;17.70;;;;;;;21.17;63.22;94503.65;828554;71;28681;-77
2021/06/08 07:01:09;;;;;;;18.93;17.03;;;;;;;22.39;60.95;94485.48;834337;71;29266;-76
2021/06/08 07:16:08;;;;;;;16.53;14.17;;;;;;;23.91;55.59;94467.82;835796;71;28681;-79
2021/06/08 07:31:34;;;;;;;14.90;13.40;;;;;;;26.02;51.79;94462.02;834018;71;31970;-77
2021/06/08 07:46:29;;;;;;;18.70;17.00;;;;;;;26.45;47.45;94466.68;833976;71;32455;-78
2021/06/08 08:01:20;;;;;;;13.20;12.00;;;;;;;27.02;46.87;165794.39;834169;71;32830;-77
2021/06/08 08:16:11;;;;;;;12.67;11.47;;;;;;;28.63;43.84;94468.14;828485;71;29821;-75
2021/06/08 08:31:11;;;;;;;9.50;8.80;;;;;;;29.45;39.75;94464.92;828560;71;29742;-77
2021/06/08 08:46:20;;;;;;;9.40;8.60;;;;;;;30.16;36.97;94460.27;827902;71;32682;-74
2021/06/08 09:16:14;;;;;;;10.50;9.63;;;;;;;29.09;38.10;94428.34;829601;71;29747;-79
2021/06/08 09:31:24;;;;;;;10.67;9.87;;;;;;;29.43;38.01;94403.14;834414;71;28519;-75
2021/06/08 09:46:20;;;;;;;9.10;8.23;;;;;;;28.99;37.71;94377.17;834138;71;32774;-79
2021/06/08 10:01:27;;;;;;;10.70;9.90;;;;;;;28.55;37.71;94369.69;833917;71;33662;-79
2021/06/08 10:16:31;;;;;;;9.90;9.10;;;;;;;28.17;38.39;94354.91;833894;71;32725;-77
2021/06/08 10:31:16;;;;;;;10.13;9.40;;;;;;;27.96;38.50;94356.50;827291;71;32797;-77
2021/06/08 10:46:20;;;;;;;8.27;7.67;;;;;;;28.07;38.79;94330.77;827313;71;32701;-80
2021/06/08 11:01:27;;;;;;;9.10;8.40;;;;;;;27.56;40.06;94327.25;829677;71;29702;-79
2021/06/08 11:16:31;;;;;;;9.30;8.50;;;;;;;27.05;43.68;94362.53;834023;71;32676;-78
2021/06/08 11:31:16;;;;;;;7.63;7.03;;;;;;;26.35;46.80;94365.24;827655;71;32759;-77
2021/06/08 11:46:14;;;;;;;7.80;7.20;;;;;;;;;;827695;71;32796;-76
2021/06/08 12:01:42;;;;;;;7.83;6.87;;;;;;;26.18;47.83;94350.14;834037;71;33529;-76
2021/06/08 12:16:15;;;;;;;7.77;7.10;;;;;;;26.40;46.33;94311.03;833998;71;33150;-78
2021/06/08 12:31:18;;;;;;;7.10;6.60;;;;;;;26.94;41.32;94291.22;816482;71;33297;-79
2021/06/08 12:46:26;;;;;;;8.00;7.20;;;;;;;27.34;40.63;94279.53;820471;71;32886;-77
2021/06/08 13:01:17;;;;;;;6.87;6.37;;;;;;;27.61;40.55;94301.77;823305;71;32175;-78
2021/06/08 13:16:33;;;;;;;5.53;5.13;;;;;;;27.84;38.80;94311.14;825248;71;31756;-76
2021/06/08 13:31:19;;;;;;;5.57;5.17;;;;;;;27.85;37.85;94300.55;817363;71;31835;-79
2021/06/08 13:46:18;;;;;;;6.60;6.10;;;;;;;27.77;37.99;94294.47;828963;71;31788;-77
2021/06/08 14:01:15;;;;;;;6.67;6.17;;;;;;;27.15;35.74;94301.65;826165;71;31748;-79
2021/06/08 14:16:19;;;;;;;9.03;8.20;;;;;;;25.10;44.71;94324.08;833974;71;31710;-77
2021/06/08 14:31:22;;;;;;;7.17;6.67;;;;;;;23.39;48.42;94314.37;827594;71;31758;-78
2021/06/08 14:46:15;;;;;;;7.30;6.60;;;;;;;22.89;49.35;94316.68;827436;71;33109;-77
2021/06/08 15:16:15;;;;;;;7.43;6.77;;;;;;;21.97;51.06;94293.45;828280;71;31724;-77
2021/06/08 15:31:10;;;;;;;7.30;6.53;;;;;;;22.37;51.31;94287.98;829395;71;28815;-82
2021/06/08 15:46:11;;;;;;;6.73;6.23;;;;;;;22.71;48.68;94272.39;821429;71;28777;-77
2021/06/08 16:01:09;;;;;;;7.57;6.97;;;;;;;23.08;48.90;94263.52;828230;71;30299;-75
2021/06/08 16:16:13;;;;;;;7.70;7.17;;;;;;;23.02;47.78;94271.13;833885;71;32036;-75
2021/06/08 16:31:09;;;;;;;7.00;6.40;;;;;;;22.84;46.71;94279.00;828939;71;29316;-77
2021/06/08 16:46:21;;;;;;;8.07;7.37;;;;;;;22.42;47.62;94281.52;827976;71;31895;-76
2021/06/08 17:01:09;;;;;;;8.20;7.40;;;;;;;21.89;49.43;94292.41;835060;71;28631;-77
2021/06/08 17:16:10;;;;;;;8.70;7.90;;;;;;;21.47;50.87;94297.44;834994;71;29208;-78
2021/06/08 17:31:09;;;;;;;8.28;7.53;;;;;;;21.16;52.87;94323.30;828665;71;28688;-75
2021/06/08 17:46:14;;;;;;;17.93;10.87;;;;;;;21.87;57.93;94326.16;826408;70;32494;-75
2021/06/08 18:01:09;;;;;;;9.03;8.13;;;;;;;21.97;58.26;94315.41;834119;71;30141;-75
2021/06/08 18:16:18;;;;;;;10.83;9.00;;;;;;;22.39;58.96;94352.55;827775;71;31785;-75
2021/06/08 18:31:11;;;;;;;9.27;8.37;;;;;;;22.74;55.31;94384.03;829718;71;29837;-80
2021/06/08 18:46:16;;;;;;;9.83;8.80;;;;;;;21.97;58.29;94411.59;834363;71;31743;-78
2021/06/08 19:01:09;;;;;;;9.70;8.70;;;;;;;21.43;64.01;94453.55;816548;71;29309;-78
2021/06/08 19:16:14;;;;;;;8.80;8.00;;;;;;;20.66;68.91;94494.50;831935;71;31738;-79
2021/06/08 19:31:13;;;;;;;8.90;8.10;;;;;;;20.72;74.42;94517.88;828149;71;31643;-77
2021/06/08 19:46:09;;;;;;;10.20;7.92;;;;;;;20.36;74.14;94515.03;834377;71;29838;-81
2021/06/08 20:01:14;;;;;;;7.78;7.15;;;;;;;20.14;73.69;94473.84;793361;74;31954;-78
2021/06/08 20:16:08;;;;;;;6.05;5.55;;;;;;;20.23;73.73;94440.32;828382;71;28756;-81
2021/06/08 20:31:08;;;;;;;7.92;6.60;;;;;;;19.91;72.60;94433.77;829370;71;28804;-81
2021/06/08 20:46:23;;;;;;;8.28;7.58;;;;;;;20.03;72.30;94424.88;820450;71;32315;-77
2021/06/08 21:16:15;;;;;;;7.50;6.80;;;;;;;19.78;72.10;94430.45;827370;71;32048;-78
2021/06/08 21:31:15;;;;;;;8.03;7.17;;;;;;;19.72;72.13;94418.53;827489;71;31712;-78
2021/06/08 21:46:09;;;;;;;6.83;6.10;;;;;;;19.72;71.70;94405.98;834342;71;29239;-78
2021/06/08 22:01:09;;;;;;;5.60;5.10;;;;;;;19.55;70.62;94391.15;828500;71;29190;-77
2021/06/08 22:16:16;;;;;;;5.33;4.92;;;;;;;19.34;70.53;94371.50;827236;71;31811;-79
2021/06/08 22:31:16;;;;;;;5.83;5.42;;;;;;;19.29;70.42;94373.08;827273;71;31714;-77
2021/06/08 22:46:18;;;;;;;6.17;5.67;;;;;;;19.19;70.14;94353.09;827498;71;31718;-77
2021/06/08 23:01:12;;;;;;;6.30;5.70;;;;;;;19.13;69.78;94351.05;828423;71;28677;-77
2021/06/08 23:16:14;;;;;;;5.70;5.20;;;;;;;18.97;69.67;94343.08;829890;71;32142;-77
2021/06/08 23:31:15;;;;;;;5.87;5.37;;;;;;;18.78;70.23;94353.83;827599;71;32246;-78
2021/06/08 23:46:15;;;;;;;6.10;5.60;;;;;;;18.69;69.94;94349.22;827627;71;33198;-77
